Calanus - UK — GBJK — position and weather

sailwx.info

Track history (hours):
 
Tides and Currents Weather Stations Pressure Air Temp Water Temp Dewpoint Dewpoint Depression Visibility Wind Speed Wind Dir Waves Ship Positions

Oceanographic research ship Calanus - UK (UK)

Detailed information on ship capabilities available from University of Delaware's Ocean Information Center.

Last reported at 2018-Apr-12 14:36 UTC. Time now 2018-Apr-23 19:02 UTC.
Position N 56°27' W 005°26'.
Warning: this ship's position is 11 days out of date.

Length 19 m.

Type: Dredging. MMSI: 235050871.

Date/timePositionNaut miles runAvg speedWind from/ knotsBaromVisibWave heightAir tempDewpointWater temp
2018-Apr-12 14:36N 56°27' W 005°26'0 2.6
2018-Apr-12 14:30N 56°27' W 005°26'4 0.6
2018-Apr-12 08:16N 56°26' W 005°33'2 8.8
2018-Apr-12 07:59N 56°27' W 005°29'1 0.0
2018-Apr-10 14:39N 56°27' W 005°26'1 4.2
2018-Apr-10 14:29N 56°28' W 005°27'2 0.1
2018-Apr-09 08:17N 56°27' W 005°23'2 5.9
2018-Apr-09 07:54N 56°28' W 005°27'0 0.0
2018-Apr-09 07:24N 56°28' W 005°27'1 1.6
2018-Apr-09 06:57N 56°27' W 005°26'  
Track history (hours):
 
Tides and Currents Weather Stations Pressure Air Temp Water Temp Dewpoint Dewpoint Depression Visibility Wind Speed Wind Dir Waves Ship Positions

Oceanographic research ship Calanus - UK (UK)

Detailed information on ship capabilities available from University of Delaware's Ocean Information Center.

Last reported at 2018-Apr-12 14:36 UTC. Time now 2018-Apr-23 19:02 UTC.
Position N 56°27' W 005°26'.
Warning: this ship's position is 11 days out of date.

Length 19 m.

Type: Dredging. MMSI: 235050871.

Date/timePositionNaut miles runAvg speedWind from/ knotsBaromVisibWave heightAir tempDewpointWater temp
2018-Apr-12 14:36N 56°27' W 005°26'0 2.6
2018-Apr-12 14:30N 56°27' W 005°26'4 0.6
2018-Apr-12 08:16N 56°26' W 005°33'2 8.8
2018-Apr-12 07:59N 56°27' W 005°29'1 0.0
2018-Apr-10 14:39N 56°27' W 005°26'1 4.2
2018-Apr-10 14:29N 56°28' W 005°27'2 0.1
2018-Apr-09 08:17N 56°27' W 005°23'2 5.9
2018-Apr-09 07:54N 56°28' W 005°27'0 0.0
2018-Apr-09 07:24N 56°28' W 005°27'1 1.6
2018-Apr-09 06:57N 56°27' W 005°26'  

Dump ship's entire track history